Time;durP1;ratioP1;P1;durP2;ratioP2;P2;SDS_P1;SDS_P2;PMS_P1;PMS_P2;Temp;Humidity;BMP_temperature;BMP_pressure;BME280_temperature;BME280_humidity;BME280_pressure;Samples;Min_cycle;Max_cycle;Signal;HPM_P1;HPM_P2
2021/11/16 00:01:56;;;;;;;34.13;23.50;;;;;;;;;;10280677;28;20450;-64
2021/11/16 00:06:54;;;;;;;32.83;23.23;;;;;;;;;;10294705;28;20567;-64
2021/11/16 00:11:53;;;;;;;42.00;24.67;;;;;;;;;;10280161;28;20072;-64
2021/11/16 00:16:51;;;;;;;40.47;24.15;;;;;;;;;;10280003;28;20049;-64
2021/11/16 00:21:51;;;;;;;34.28;22.95;;;;;;;;;;10279732;28;20122;-64
2021/11/16 00:26:49;;;;;;;37.45;22.77;;;;;;;;;;10279808;28;20111;-64
2021/11/16 00:31:48;;;;;;;30.33;22.23;;;;;;;;;;10277034;28;20158;-64
2021/11/16 00:36:46;;;;;;;35.15;22.40;;;;;;;;;;10279289;28;20469;-64
2021/11/16 00:41:46;;;;;;;39.92;24.40;;;;;;;;;;10277368;28;20451;-64
2021/11/16 00:46:45;;;;;;;32.67;21.15;;;;;;;;;;10277357;28;20469;-64
2021/11/16 00:51:44;;;;;;;31.85;21.58;;;;;;;;;;10277691;28;20072;-64
2021/11/16 00:56:43;;;;;;;32.63;21.67;;;;;;;;;;10277572;28;20076;-64
2021/11/16 01:01:42;;;;;;;32.97;22.50;;;;;;;;;;10278234;28;20525;-64
2021/11/16 01:06:41;;;;;;;36.45;23.40;;;;;;;;;;10292182;28;20068;-64
2021/11/16 01:11:39;;;;;;;36.38;22.55;;;;;;;;;;10277906;28;20049;-64
2021/11/16 01:16:38;;;;;;;37.65;24.10;;;;;;;;;;10277607;28;20175;-64
2021/11/16 01:21:38;;;;;;;34.95;23.10;;;;;;;;;;10277451;28;20049;-64
2021/11/16 01:26:36;;;;;;;36.53;24.67;;;;;;;;;;10277101;28;20037;-64
2021/11/16 01:31:35;;;;;;;45.20;29.65;;;;;;;;;;10276940;28;20045;-64
2021/11/16 01:36:33;;;;;;;34.08;23.88;;;;;;;;;;10276876;28;20088;-64
2021/11/16 01:41:33;;;;;;;35.22;24.42;;;;;;;;;;10276616;28;20081;-64
2021/11/16 01:46:31;;;;;;;38.53;25.58;;;;;;;;;;10276236;28;20422;-64
2021/11/16 01:51:30;;;;;;;43.58;30.20;;;;;;;;;;10289587;28;20065;-64
2021/11/16 01:56:29;;;;;;;59.30;38.38;;;;;;;;;;10276093;28;20075;-64
2021/11/16 02:01:30;;;;;;;48.35;32.65;;;;;;;;;;10276241;28;20045;-64
2021/11/16 02:06:29;;;;;;;44.60;31.02;;;;;;;;;;10290119;28;20037;-64
2021/11/16 02:11:28;;;;;;;40.05;29.40;;;;;;;;;;10275545;28;20044;-64
2021/11/16 02:16:26;;;;;;;50.90;29.83;;;;;;;;;;10272874;28;20103;-64
2021/11/16 02:21:26;;;;;;;39.78;28.40;;;;;;;;;;10275123;28;20075;-64
2021/11/16 02:26:25;;;;;;;45.65;30.63;;;;;;;;;;10275045;28;20076;-64
2021/11/16 02:31:24;;;;;;;45.65;28.20;;;;;;;;;;10274987;28;20045;-63
2021/11/16 02:36:22;;;;;;;42.42;27.92;;;;;;;;;;10273991;28;20077;-63
2021/11/16 02:41:22;;;;;;;40.83;28.23;;;;;;;;;;10285360;28;20479;-64
2021/11/16 02:46:21;;;;;;;37.50;27.48;;;;;;;;;;10275425;28;20107;-63
2021/11/16 02:51:20;;;;;;;37.20;26.17;;;;;;;;;;10287844;28;20147;-64
2021/11/16 02:56:18;;;;;;;43.38;28.80;;;;;;;;;;10283667;28;20095;-64
2021/11/16 03:01:19;;;;;;;35.72;26.15;;;;;;;;;;10287948;28;20525;-64
2021/11/16 03:06:17;;;;;;;42.42;26.65;;;;;;;;;;10302384;28;20050;-63
2021/11/16 03:11:16;;;;;;;37.22;25.60;;;;;;;;;;10287278;28;20471;-63
2021/11/16 03:16:16;;;;;;;37.83;27.13;;;;;;;;;;10286213;28;20102;-64
2021/11/16 03:21:17;;;;;;;42.78;28.80;;;;;;;;;;10286559;28;20540;-63
2021/11/16 03:26:16;;;;;;;49.17;28.60;;;;;;;;;;10287736;28;20045;-63
2021/11/16 03:31:20;;;;;;;38.50;25.77;;;;;;;;;;10287684;28;20461;-63
2021/11/16 03:36:20;;;;;;;41.77;27.13;;;;;;;;;;10287434;28;20326;-63
2021/11/16 03:41:20;;;;;;;50.65;28.85;;;;;;;;;;10285561;28;20072;-63
2021/11/16 03:46:18;;;;;;;41.25;26.65;;;;;;;;;;10287281;28;20071;-64
2021/11/16 03:51:17;;;;;;;42.05;28.15;;;;;;;;;;10286997;28;20077;-64
2021/11/16 03:56:19;;;;;;;46.58;28.80;;;;;;;;;;10286668;28;20136;-64
2021/11/16 04:01:18;;;;;;;41.80;25.77;;;;;;;;;;10286750;28;20079;-64
2021/11/16 04:06:17;;;;;;;41.88;27.20;;;;;;;;;;10296955;28;20075;-64
2021/11/16 04:11:15;;;;;;;37.13;24.95;;;;;;;;;;10280212;28;20033;-64
2021/11/16 04:16:15;;;;;;;39.13;26.95;;;;;;;;;;10279926;28;20084;-64
2021/11/16 04:21:14;;;;;;;42.17;29.52;;;;;;;;;;10279864;28;20049;-64
2021/11/16 04:26:12;;;;;;;48.10;29.30;;;;;;;;;;10279708;28;20501;-64
2021/11/16 04:31:10;;;;;;;47.83;31.48;;;;;;;;;;10279171;28;20076;-64
2021/11/16 04:36:12;;;;;;;40.47;27.38;;;;;;;;;;10279102;28;20076;-64
2021/11/16 04:41:10;;;;;;;44.92;28.27;;;;;;;;;;10279023;28;20087;-64
2021/11/16 04:46:11;;;;;;;47.35;29.33;;;;;;;;;;10278672;28;20077;-64
2021/11/16 04:51:33;;;;;;;46.42;27.83;;;;;;;;;;10278402;28;20068;-64
2021/11/16 05:07:10;;;;;;;38.40;25.52;;;;;;;;;;10291242;28;20068;-64
2021/11/16 05:12:08;;;;;;;;;;;;;;;;;;10278721;28;20049;-64
2021/11/16 05:17:06;;;;;;;39.78;26.70;;;;;;;;;;10277137;28;19986;-64
2021/11/16 05:22:06;;;;;;;41.72;27.58;;;;;;;;;;10277131;28;20069;-63
2021/11/16 05:27:05;;;;;;;43.90;30.38;;;;;;;;;;10277464;28;20068;-64
2021/11/16 05:32:03;;;;;;;39.92;27.52;;;;;;;;;;10276558;28;20541;-63
2021/11/16 05:37:02;;;;;;;41.88;28.25;;;;;;;;;;10276260;28;20091;-64
2021/11/16 05:42:02;;;;;;;47.72;29.13;;;;;;;;;;10276710;28;20076;-65
2021/11/16 05:47:00;;;;;;;38.35;26.50;;;;;;;;;;10283258;28;20072;-65
2021/11/16 05:51:59;;;;;;;40.28;27.67;;;;;;;;;;10295155;28;20068;-65
2021/11/16 05:56:58;;;;;;;50.80;32.90;;;;;;;;;;10278173;28;20435;-65
2021/11/16 06:01:57;;;;;;;42.70;27.10;;;;;;;;;;10272708;28;20080;-65
2021/11/16 06:06:56;;;;;;;46.05;27.83;;;;;;;;;;10277227;28;20470;-65
2021/11/16 06:11:54;;;;;;;37.75;26.77;;;;;;;;;;10276354;28;20056;-64
2021/11/16 06:16:53;;;;;;;48.30;29.55;;;;;;;;;;10274992;28;20073;-64
2021/11/16 06:21:53;;;;;;;44.35;27.80;;;;;;;;;;10275621;28;20076;-64
2021/11/16 06:26:51;;;;;;;45.60;29.38;;;;;;;;;;10279181;28;20073;-64
2021/11/16 06:31:50;;;;;;;40.85;27.75;;;;;;;;;;10272997;28;20079;-64
2021/11/16 06:36:49;;;;;;;40.83;29.42;;;;;;;;;;10274571;28;20085;-63
2021/11/16 06:41:49;;;;;;;42.72;27.17;;;;;;;;;;10271063;28;20117;-64
2021/11/16 06:46:49;;;;;;;46.40;28.90;;;;;;;;;;10270517;28;20476;-64
2021/11/16 06:51:48;;;;;;;43.08;27.83;;;;;;;;;;10270787;28;20088;-64
2021/11/16 06:56:49;;;;;;;43.38;29.05;;;;;;;;;;10270507;28;20118;-64
2021/11/16 07:01:48;;;;;;;40.83;26.63;;;;;;;;;;10277062;28;20076;-63
2021/11/16 07:06:48;;;;;;;43.35;27.90;;;;;;;;;;10310459;28;20067;-64
2021/11/16 07:11:47;;;;;;;43.83;29.88;;;;;;;;;;10311231;28;20091;-64
2021/11/16 07:16:59;;;;;;;48.38;29.20;;;;;;;;;;10291038;28;20072;-64
2021/11/16 07:22:00;;;;;;;49.75;30.25;;;;;;;;;;10269566;28;20044;-64
2021/11/16 07:27:00;;;;;;;48.58;30.52;;;;;;;;;;10272823;28;20065;-64
2021/11/16 07:32:00;;;;;;;47.65;29.60;;;;;;;;;;10271138;28;20065;-65
2021/11/16 07:36:59;;;;;;;45.65;30.33;;;;;;;;;;10270236;28;20506;-65
2021/11/16 07:42:04;;;;;;;47.55;32.28;;;;;;;;;;10272567;28;20088;-65
2021/11/16 07:47:05;;;;;;;43.70;28.50;;;;;;;;;;10277972;28;20453;-64
2021/11/16 07:52:05;;;;;;;40.92;30.92;;;;;;;;;;10316000;28;20079;-65
2021/11/16 07:57:04;;;;;;;49.40;32.13;;;;;;;;;;10284849;28;20072;-64
2021/11/16 08:02:07;;;;;;;45.65;32.17;;;;;;;;;;10285275;28;20556;-64
2021/11/16 08:07:12;;;;;;;42.75;30.55;;;;;;;;;;10292458;28;20479;-65
2021/11/16 08:12:22;;;;;;;42.88;30.85;;;;;;;;;;10275849;28;20056;-65
2021/11/16 08:17:24;;;;;;;45.38;30.27;;;;;;;;;;10272849;28;20148;-65
2021/11/16 08:22:22;;;;;;;46.50;32.90;;;;;;;;;;10287654;28;20069;-64
2021/11/16 08:27:21;;;;;;;43.45;30.17;;;;;;;;;;10292453;28;20068;-65
2021/11/16 08:32:22;;;;;;;43.13;29.85;;;;;;;;;;10290516;28;20080;-64
2021/11/16 08:37:23;;;;;;;47.30;31.45;;;;;;;;;;10289847;28;20072;-64
2021/11/16 08:42:22;;;;;;;46.85;31.80;;;;;;;;;;10273973;28;20548;-65
2021/11/16 08:47:21;;;;;;;43.13;29.83;;;;;;;;;;10281362;28;20525;-65
2021/11/16 08:52:20;;;;;;;41.30;30.80;;;;;;;;;;10282174;28;20072;-65
2021/11/16 08:57:21;;;;;;;40.38;28.58;;;;;;;;;;10275764;28;20160;-65
2021/11/16 09:02:20;;;;;;;44.00;29.20;;;;;;;;;;10274684;28;20071;-65
2021/11/16 09:07:21;;;;;;;40.50;33.60;;;;;;;;;;10289407;28;20076;-65
2021/11/16 09:12:21;;;;;;;40.80;29.90;;;;;;;;;;10275108;28;20509;-64
2021/11/16 09:17:19;;;;;;;45.45;33.28;;;;;;;;;;10273964;28;20095;-64
2021/11/16 09:22:19;;;;;;;41.47;26.77;;;;;;;;;;10275012;28;20059;-65
2021/11/16 09:27:38;;;;;;;37.63;28.35;;;;;;;;;;10272849;28;20044;-65
2021/11/16 09:32:38;;;;;;;35.72;26.23;;;;;;;;;;10272117;28;20080;-64
2021/11/16 09:37:38;;;;;;;33.35;28.23;;;;;;;;;;10274046;28;20075;-64
2021/11/16 09:42:37;;;;;;;42.63;28.58;;;;;;;;;;10273806;28;20065;-65
2021/11/16 09:47:37;;;;;;;30.70;24.90;;;;;;;;;;10273910;28;20171;-64
2021/11/16 09:52:40;;;;;;;39.60;27.38;;;;;;;;;;10273784;28;20069;-64
2021/11/16 09:57:40;;;;;;;34.47;25.38;;;;;;;;;;10273386;28;20069;-64
2021/11/16 10:02:39;;;;;;;35.67;27.05;;;;;;;;;;10273192;28;20068;-64
2021/11/16 10:07:39;;;;;;;29.75;23.33;;;;;;;;;;10285144;28;20052;-64
2021/11/16 10:12:38;;;;;;;36.08;22.25;;;;;;;;;;10301125;28;20036;-65
2021/11/16 10:17:37;;;;;;;27.30;21.35;;;;;;;;;;10278089;28;20530;-65
2021/11/16 10:22:35;;;;;;;33.70;21.50;;;;;;;;;;10285371;28;20143;-65
2021/11/16 10:27:36;;;;;;;26.40;18.02;;;;;;;;;;10270721;28;20072;-65
2021/11/16 10:32:34;;;;;;;29.23;19.92;;;;;;;;;;10272066;28;20565;-65
2021/11/16 10:37:43;;;;;;;23.05;18.20;;;;;;;;;;10272185;28;20076;-65
2021/11/16 10:42:45;;;;;;;32.22;18.70;;;;;;;;;;10271408;28;20079;-65
2021/11/16 10:47:45;;;;;;;26.55;19.35;;;;;;;;;;10271220;28;20465;-65
2021/11/16 10:52:44;;;;;;;27.23;19.08;;;;;;;;;;10272081;28;20467;-65
2021/11/16 10:58:04;;;;;;;27.30;20.63;;;;;;;;;;10271472;28;20455;-65
2021/11/16 11:03:17;;;;;;;24.13;17.40;;;;;;;;;;10275170;28;20107;-65
2021/11/16 11:08:33;;;;;;;32.55;21.98;;;;;;;;;;10276572;28;20482;-64
2021/11/16 11:13:36;;;;;;;24.92;17.75;;;;;;;;;;10270607;28;20084;-65
2021/11/16 11:18:40;;;;;;;22.15;15.68;;;;;;;;;;10277875;28;20068;-65
2021/11/16 11:23:41;;;;;;;26.48;19.30;;;;;;;;;;10278622;28;20482;-65
2021/11/16 11:28:42;;;;;;;27.45;19.25;;;;;;;;;;10278323;28;20069;-65
2021/11/16 11:33:47;;;;;;;27.48;18.83;;;;;;;;;;10278025;28;20087;-65
2021/11/16 11:38:46;;;;;;;32.47;22.98;;;;;;;;;;10278001;28;20060;-65
2021/11/16 11:43:48;;;;;;;32.60;21.30;;;;;;;;;;10277626;28;20507;-65
2021/11/16 11:48:46;;;;;;;24.88;19.73;;;;;;;;;;10278281;28;20084;-65
2021/11/16 11:53:45;;;;;;;29.67;21.70;;;;;;;;;;10277540;28;20084;-65
2021/11/16 11:58:44;;;;;;;35.75;22.05;;;;;;;;;;10277018;28;20085;-65
2021/11/16 12:03:45;;;;;;;34.17;21.23;;;;;;;;;;10286205;28;20166;-66
2021/11/16 12:08:43;;;;;;;34.83;22.83;;;;;;;;;;10281371;28;20061;-64
2021/11/16 12:13:42;;;;;;;29.27;23.60;;;;;;;;;;10276940;28;20072;-65
2021/11/16 12:18:42;;;;;;;34.78;26.23;;;;;;;;;;10276430;28;20076;-64
2021/11/16 12:23:46;;;;;;;35.45;25.80;;;;;;;;;;10276783;28;20532;-65
2021/11/16 12:28:45;;;;;;;38.10;24.80;;;;;;;;;;10289431;28;20490;-64
2021/11/16 12:33:45;;;;;;;33.83;23.83;;;;;;;;;;10275776;28;20323;-64
2021/11/16 12:38:45;;;;;;;30.42;24.98;;;;;;;;;;10276060;28;20502;-64
2021/11/16 12:43:46;;;;;;;37.85;26.45;;;;;;;;;;10275511;28;20146;-64
2021/11/16 12:48:48;;;;;;;31.23;25.25;;;;;;;;;;10275615;28;20073;-64
2021/11/16 12:54:04;;;;;;;39.40;29.98;;;;;;;;;;10275575;28;20084;-64
2021/11/16 12:59:04;;;;;;;42.70;29.85;;;;;;;;;;10274872;28;20096;-64
2021/11/16 13:04:06;;;;;;;43.58;31.17;;;;;;;;;;10286180;28;20068;-65
2021/11/16 13:09:05;;;;;;;42.65;30.15;;;;;;;;;;10275356;28;20490;-64
2021/11/16 13:14:05;;;;;;;34.05;27.15;;;;;;;;;;10274336;28;20505;-64
2021/11/16 13:19:04;;;;;;;37.88;30.55;;;;;;;;;;10274311;28;20072;-64
2021/11/16 13:24:03;;;;;;;40.15;30.33;;;;;;;;;;10273806;28;20529;-64
2021/11/16 13:29:20;;;;;;;36.47;29.63;;;;;;;;;;10273748;28;20071;-64
2021/11/16 13:34:21;;;;;;;46.00;35.67;;;;;;;;;;10273768;28;20076;-64
2021/11/16 13:39:26;;;;;;;39.72;33.17;;;;;;;;;;10273143;28;20072;-64
2021/11/16 13:44:24;;;;;;;;;;;;;;;;;;10273642;28;20044;-63
2021/11/16 13:49:28;;;;;;;49.42;36.10;;;;;;;;;;10273054;28;19964;-64
2021/11/16 13:54:29;;;;;;;39.33;29.80;;;;;;;;;;10272975;28;20446;-64
2021/11/16 13:59:28;;;;;;;45.65;38.40;;;;;;;;;;10272680;28;20074;-64
2021/11/16 14:04:30;;;;;;;35.65;29.02;;;;;;;;;;10286489;28;20067;-64
2021/11/16 14:09:28;;;;;;;50.55;36.85;;;;;;;;;;10272577;28;20083;-64
2021/11/16 14:14:27;;;;;;;52.38;37.25;;;;;;;;;;10272267;28;20075;-64
2021/11/16 14:19:26;;;;;;;46.63;34.83;;;;;;;;;;10286151;28;20463;-65
2021/11/16 14:24:30;;;;;;;48.55;35.22;;;;;;;;;;10271860;28;20068;-64
2021/11/16 14:29:29;;;;;;;45.17;33.57;;;;;;;;;;10271779;28;20071;-64
2021/11/16 14:34:28;;;;;;;44.53;36.05;;;;;;;;;;10271699;28;20080;-64
2021/11/16 14:39:31;;;;;;;50.63;39.22;;;;;;;;;;10271863;28;20069;-64
2021/11/16 14:44:34;;;;;;;41.22;32.38;;;;;;;;;;10271597;28;20068;-64
2021/11/16 14:49:50;;;;;;;43.47;35.17;;;;;;;;;;10271078;28;20072;-64
2021/11/16 14:54:49;;;;;;;44.22;34.78;;;;;;;;;;10271517;28;20079;-64
2021/11/16 14:59:53;;;;;;;46.45;35.08;;;;;;;;;;10271699;28;20076;-64
2021/11/16 15:04:52;;;;;;;56.95;41.72;;;;;;;;;;10284898;28;20068;-64
2021/11/16 15:09:54;;;;;;;53.40;41.70;;;;;;;;;;10272039;28;20065;-65
2021/11/16 15:14:54;;;;;;;51.83;38.50;;;;;;;;;;10271336;28;20065;-64
2021/11/16 15:19:57;;;;;;;52.95;40.38;;;;;;;;;;10270593;28;20076;-64
2021/11/16 15:25:06;;;;;;;53.17;40.40;;;;;;;;;;10291130;28;20064;-64
2021/11/16 15:30:13;;;;;;;50.25;39.28;;;;;;;;;;10270343;28;20088;-65
2021/11/16 15:35:11;;;;;;;51.95;36.85;;;;;;;;;;10272097;28;20099;-64
2021/11/16 15:40:11;;;;;;;53.40;39.75;;;;;;;;;;10270322;28;20083;-64
2021/11/16 15:45:22;;;;;;;50.10;38.22;;;;;;;;;;10270150;28;20079;-65
2021/11/16 15:50:34;;;;;;;54.95;37.13;;;;;;;;;;10268291;28;20073;-64
2021/11/16 16:00:58;;;;;;;61.75;44.08;;;;;;;;;;10268079;28;20477;-64
2021/11/16 16:05:58;;;;;;;58.22;45.67;;;;;;;;;;10277355;28;20095;-64
2021/11/16 16:10:57;;;;;;;49.13;39.40;;;;;;;;;;10276260;28;20348;-64
2021/11/16 16:15:55;;;;;;;54.13;39.70;;;;;;;;;;10276550;28;20068;-64
2021/11/16 16:20:56;;;;;;;59.17;42.10;;;;;;;;;;10274909;28;20069;-64
2021/11/16 16:25:56;;;;;;;46.63;36.70;;;;;;;;;;10292308;28;20080;-64
2021/11/16 16:30:55;;;;;;;48.45;36.35;;;;;;;;;;10276044;28;20078;-64
2021/11/16 16:35:55;;;;;;;44.22;34.80;;;;;;;;;;10276611;28;20080;-64
2021/11/16 16:40:53;;;;;;;48.08;34.78;;;;;;;;;;10275618;28;20076;-65
2021/11/16 16:45:52;;;;;;;58.38;44.20;;;;;;;;;;10274903;28;20076;-64
2021/11/16 16:50:51;;;;;;;52.85;38.05;;;;;;;;;;10275008;28;20071;-64
2021/11/16 16:55:50;;;;;;;55.53;39.80;;;;;;;;;;10273973;28;20083;-64
2021/11/16 17:00:50;;;;;;;46.92;33.00;;;;;;;;;;10274420;28;20068;-64
2021/11/16 17:05:51;;;;;;;47.35;35.65;;;;;;;;;;10274949;28;20079;-64
2021/11/16 17:10:51;;;;;;;55.83;35.33;;;;;;;;;;10268263;28;20072;-64
2021/11/16 17:15:50;;;;;;;48.80;32.65;;;;;;;;;;10268896;28;20060;-64
2021/11/16 17:20:50;;;;;;;41.47;30.65;;;;;;;;;;10282142;28;20080;-64
2021/11/16 17:25:49;;;;;;;47.97;28.85;;;;;;;;;;10281432;28;20073;-64
2021/11/16 17:30:49;;;;;;;47.33;34.28;;;;;;;;;;10283270;28;20262;-64
2021/11/16 17:35:47;;;;;;;41.50;30.55;;;;;;;;;;10283866;28;20498;-64
2021/11/16 17:40:46;;;;;;;54.75;38.17;;;;;;;;;;10283430;28;20697;-65
2021/11/16 17:45:44;;;;;;;42.53;28.77;;;;;;;;;;10275694;28;20064;-64
2021/11/16 17:50:44;;;;;;;34.10;26.77;;;;;;;;;;10276990;28;20064;-64
2021/11/16 17:55:43;;;;;;;41.55;29.92;;;;;;;;;;10277626;28;20076;-64
2021/11/16 18:00:41;;;;;;;32.03;26.45;;;;;;;;;;10287442;28;20088;-64
2021/11/16 18:05:43;;;;;;;35.20;27.75;;;;;;;;;;10277918;28;20076;-64
2021/11/16 18:10:46;;;;;;;38.60;27.98;;;;;;;;;;10286414;28;20073;-64
2021/11/16 18:15:44;;;;;;;35.38;27.52;;;;;;;;;;10276315;28;20068;-64
2021/11/16 18:20:43;;;;;;;37.83;28.23;;;;;;;;;;10289177;28;20103;-64
2021/11/16 18:25:45;;;;;;;36.42;25.98;;;;;;;;;;10273048;28;20073;-63
2021/11/16 18:30:47;;;;;;;34.50;28.25;;;;;;;;;;10287442;28;20083;-64
2021/11/16 18:35:46;;;;;;;37.03;27.75;;;;;;;;;;10278121;28;20095;-63
2021/11/16 18:40:51;;;;;;;37.72;26.73;;;;;;;;;;10281321;28;20080;-64
2021/11/16 18:45:53;;;;;;;31.15;24.80;;;;;;;;;;10275938;28;20056;-64
2021/11/16 18:50:51;;;;;;;37.25;28.45;;;;;;;;;;10274201;28;20076;-63
2021/11/16 18:55:53;;;;;;;37.78;28.98;;;;;;;;;;10272298;28;20689;-64
2021/11/16 19:00:52;;;;;;;41.17;29.75;;;;;;;;;;10273732;28;20160;-64
2021/11/16 19:05:51;;;;;;;41.55;27.98;;;;;;;;;;10276744;28;20107;-64
2021/11/16 19:10:51;;;;;;;37.70;27.77;;;;;;;;;;10275915;28;20065;-64
2021/11/16 19:15:49;;;;;;;39.40;28.65;;;;;;;;;;10276242;28;20064;-64
2021/11/16 19:20:50;;;;;;;34.65;25.40;;;;;;;;;;10279538;28;20075;-63
2021/11/16 19:25:50;;;;;;;33.97;24.45;;;;;;;;;;10279493;28;20075;-63
2021/11/16 19:30:52;;;;;;;32.35;24.75;;;;;;;;;;10288345;28;20459;-63
2021/11/16 19:35:53;;;;;;;37.90;23.40;;;;;;;;;;10278591;28;20080;-64
2021/11/16 19:40:52;;;;;;;39.95;29.05;;;;;;;;;;10286493;28;20091;-64
2021/11/16 19:45:51;;;;;;;49.70;33.97;;;;;;;;;;10287173;28;20069;-64
2021/11/16 19:50:50;;;;;;;91.93;55.58;;;;;;;;;;10285922;28;20072;-64
2021/11/16 19:55:49;;;;;;;99.88;64.85;;;;;;;;;;10280154;28;20068;-64
2021/11/16 20:00:48;;;;;;;50.45;37.10;;;;;;;;;;10279378;28;20077;-64
2021/11/16 20:05:58;;;;;;;36.63;27.13;;;;;;;;;;10287670;28;20088;-64
2021/11/16 20:11:00;;;;;;;30.13;21.70;;;;;;;;;;10279481;28;20081;-64
2021/11/16 20:15:58;;;;;;;22.33;17.50;;;;;;;;;;10293270;28;20474;-64
2021/11/16 20:20:58;;;;;;;25.60;16.27;;;;;;;;;;10279329;28;20084;-64
2021/11/16 20:26:02;;;;;;;21.17;15.98;;;;;;;;;;10287460;28;20494;-64
2021/11/16 20:31:01;;;;;;;24.15;17.13;;;;;;;;;;10295211;28;20072;-63
2021/11/16 20:36:06;;;;;;;27.13;17.23;;;;;;;;;;10299233;28;20083;-63
2021/11/16 20:41:10;;;;;;;22.00;16.33;;;;;;;;;;10299048;28;20088;-64
2021/11/16 21:02:10;;;;;;;16.67;11.65;;;;;;;;;;10277011;28;20087;-64
2021/11/16 21:07:10;;;;;;;16.30;11.23;;;;;;;;;;10297601;28;20438;-64
2021/11/16 21:12:09;;;;;;;19.98;13.05;;;;;;;;;;10296002;28;20073;-63
2021/11/16 21:17:09;;;;;;;18.98;12.95;;;;;;;;;;10295185;28;20079;-63
2021/11/16 21:22:08;;;;;;;21.45;12.63;;;;;;;;;;10294344;28;20533;-63
2021/11/16 21:27:10;;;;;;;20.55;12.60;;;;;;;;;;10297244;28;20072;-63
2021/11/16 21:32:10;;;;;;;19.42;11.88;;;;;;;;;;10297130;28;20079;-64
2021/11/16 21:37:09;;;;;;;21.27;9.45;;;;;;;;;;10278335;28;20075;-63
2021/11/16 21:42:08;;;;;;;21.27;12.23;;;;;;;;;;10293721;28;20465;-63
2021/11/16 21:47:09;;;;;;;30.17;16.80;;;;;;;;;;10295448;28;20087;-64
2021/11/16 21:52:08;;;;;;;20.42;11.88;;;;;;;;;;10294487;28;20072;-62
2021/11/16 21:57:06;;;;;;;23.52;12.38;;;;;;;;;;10295387;28;20516;-63
2021/11/16 22:02:06;;;;;;;18.30;10.45;;;;;;;;;;10294798;28;20547;-63
2021/11/16 22:07:15;;;;;;;22.42;12.20;;;;;;;;;;10294934;28;20044;-63
2021/11/16 22:12:14;;;;;;;18.27;10.80;;;;;;;;;;10290883;28;20080;-63
2021/11/16 22:17:17;;;;;;;18.27;11.05;;;;;;;;;;10292932;28;20528;-63
2021/11/16 22:22:15;;;;;;;35.38;20.65;;;;;;;;;;10294623;28;20071;-64
2021/11/16 22:27:13;;;;;;;22.58;14.27;;;;;;;;;;10294013;28;20071;-64
2021/11/16 22:32:12;;;;;;;15.13;9.80;;;;;;;;;;10295301;28;20060;-64
2021/11/16 22:37:12;;;;;;;14.40;11.13;;;;;;;;;;10296185;28;20064;-64
2021/11/16 22:42:11;;;;;;;25.70;12.93;;;;;;;;;;10281534;28;20488;-64
2021/11/16 22:47:09;;;;;;;26.08;17.30;;;;;;;;;;10275164;28;20068;-64
2021/11/16 22:52:08;;;;;;;12.57;10.40;;;;;;;;;;10274732;28;20065;-64
2021/11/16 22:57:08;;;;;;;21.00;13.00;;;;;;;;;;10274819;28;20049;-64
